Station Historical Data
Daily Summary for April 14, 2012 Units:  Both    English   Metric
« Previous Day
Next Day »
Daily Weekly Monthly Yearly Custom
  High: Low: Average:
Temperature: 78.0 °F /  25.6 °C 53.8 °F /  12.1 °C 66.1 °F /  18.9 °C
Dew Point: 59.3 °F /  15.2 °C 46.2 °F /  7.9 °C 52.3 °F /  11.3 °C
Humidity: 77% 46% 62%
Wind Speed: 15.0mph /  24.1km/h - 5.9mph /  9.5km/h
Wind Gust: 19.0mph /  30.6km/h - -
Wind- - SE
Pressure: 30.17 in /  1021.6 hPa 30.00 in /  1015.8 hPa -
Precipitation: 0.00 in /  0 mm    
Historical Graphs
 
 
Tabular Data for April 14, 2012
Time Temperature Dew Point Pressure Wind Wind Speed Wind Gust Humidity Rainfall Rate (Hourly) Conditions
00:00 61.8 °F /  16.6 °C 46.9 °F /  8.3 °C 30.13in /  1020.2hPa ESE 3.0mph /  4.8km/h 4.0mph /  6.4km/h 58% 0.00in /  0mm
00:05 61.4 °F /  16.3 °C 47.0 °F /  8.3 °C 30.13in /  1020.2hPa ESE 3.0mph /  4.8km/h 4.0mph /  6.4km/h 59% 0.00in /  0mm
00:10 61.1 °F /  16.2 °C 47.1 °F /  8.4 °C 30.13in /  1020.2hPa ESE 4.0mph /  6.4km/h 4.0mph /  6.4km/h 60% 0.00in /  0mm
00:15 61.1 °F /  16.2 °C 47.1 °F /  8.4 °C 30.12in /  1019.9hPa ESE 4.0mph /  6.4km/h 4.0mph /  6.4km/h 60% 0.00in /  0mm
00:16 61.1 °F /  16.2 °C 47.1 °F /  8.4 °C 30.12in /  1019.9hPa ESE 4.0mph /  6.4km/h 4.0mph /  6.4km/h 60% 0.00in /  0mm
00:21 61.1 °F /  16.2 °C 47.1 °F /  8.4 °C 30.12in /  1019.9hPa ESE 4.0mph /  6.4km/h 5.0mph /  8km/h 60% 0.00in /  0mm
00:26 60.8 °F /  16 °C 46.8 °F /  8.2 °C 30.12in /  1019.9hPa SE 3.0mph /  4.8km/h 4.0mph /  6.4km/h 60% 0.00in /  0mm
00:31 60.6 °F /  15.9 °C 47.1 °F /  8.4 °C 30.12in /  1019.9hPa ESE 3.0mph /  4.8km/h 5.0mph /  8km/h 61% 0.00in /  0mm
00:36 60.4 °F /  15.8 °C 47.3 °F /  8.5 °C 30.12in /  1019.9hPa ESE 2.0mph /  3.2km/h 3.0mph /  4.8km/h 62% 0.00in /  0mm
00:41 60.3 °F /  15.7 °C 47.2 °F /  8.4 °C 30.12in /  1019.9hPa ESE 3.0mph /  4.8km/h 3.0mph /  4.8km/h 62% 0.00in /  0mm
00:46 60.0 °F /  15.6 °C 47.4 °F /  8.6 °C 30.12in /  1019.9hPa East 5.0mph /  8km/h 5.0mph /  8km/h 63% 0.00in /  0mm
00:52 59.5 °F /  15.3 °C 47.3 °F /  8.5 °C 30.12in /  1019.9hPa ESE 2.0mph /  3.2km/h 3.0mph /  4.8km/h 64% 0.00in /  0mm
00:57 59.1 °F /  15.1 °C 47.4 °F /  8.6 °C 30.12in /  1019.9hPa ESE 2.0mph /  3.2km/h 3.0mph /  4.8km/h 65% 0.00in /  0mm
01:02 58.7 °F /  14.8 °C 47.4 °F /  8.6 °C 30.11in /  1019.5hPa ESE 3.0mph /  4.8km/h 3.0mph /  4.8km/h 66% 0.00in /  0mm
01:07 58.4 °F /  14.7 °C 47.5 °F /  8.6 °C 30.11in /  1019.5hPa ESE 4.0mph /  6.4km/h 5.0mph /  8km/h 67% 0.00in /  0mm
01:12 58.3 °F /  14.6 °C 47.4 °F /  8.6 °C 30.11in /  1019.5hPa ESE 4.0mph /  6.4km/h 5.0mph /  8km/h 67% 0.00in /  0mm
01:17 58.3 °F /  14.6 °C 47.4 °F /  8.6 °C 30.11in /  1019.5hPa SE 4.0mph /  6.4km/h 5.0mph /  8km/h 67% 0.00in /  0mm
01:22 58.3 °F /  14.6 °C 47.4 °F /  8.6 °C 30.10in /  1019.2hPa ESE 3.0mph /  4.8km/h 6.0mph /  9.7km/h 67% 0.00in /  0mm
01:27 58.3 °F /  14.6 °C 47.4 °F /  8.6 °C 30.10in /  1019.2hPa ESE 4.0mph /  6.4km/h 5.0mph /  8km/h 67% 0.00in /  0mm
01:32 58.3 °F /  14.6 °C 47.4 °F /  8.6 °C 30.10in /  1019.2hPa ESE 5.0mph /  8km/h 5.0mph /  8km/h 67% 0.00in /  0mm
01:37 58.2 °F /  14.6 °C 47.3 °F /  8.5 °C 30.10in /  1019.2hPa SE 3.0mph /  4.8km/h 6.0mph /  9.7km/h 67% 0.00in /  0mm
01:42 58.1 °F /  14.5 °C 47.6 °F /  8.7 °C 30.10in /  1019.2hPa ESE 6.0mph /  9.7km/h 7.0mph /  11.3km/h 68% 0.00in /  0mm
01:47 57.9 °F /  14.4 °C 47.4 °F /  8.6 °C 30.09in /  1018.8hPa SE 5.0mph /  8km/h 8.0mph /  12.9km/h 68% 0.00in /  0mm
01:52 57.9 °F /  14.4 °C 47.8 °F /  8.8 °C 30.10in /  1019.2hPa SE 3.0mph /  4.8km/h 6.0mph /  9.7km/h 69% 0.00in /  0mm
01:57 58.0 °F /  14.4 °C 47.9 °F /  8.8 °C 30.09in /  1018.8hPa SE 3.0mph /  4.8km/h 6.0mph /  9.7km/h 69% 0.00in /  0mm
02:02 58.4 °F /  14.7 °C 47.9 °F /  8.8 °C 30.09in /  1018.8hPa SE 4.0mph /  6.4km/h 6.0mph /  9.7km/h 68% 0.00in /  0mm
02:07 58.6 °F /  14.8 °C 47.7 °F /  8.7 °C 30.09in /  1018.8hPa SE 6.0mph /  9.7km/h 8.0mph /  12.9km/h 67% 0.00in /  0mm
02:12 59.0 °F /  15 °C 48.1 °F /  8.9 °C 30.09in /  1018.8hPa SE 5.0mph /  8km/h 7.0mph /  11.3km/h 67% 0.00in /  0mm
02:17 59.4 °F /  15.2 °C 48.0 °F /  8.9 °C 30.09in /  1018.8hPa SE 6.0mph /  9.7km/h 8.0mph /  12.9km/h 66% 0.00in /  0mm
02:22 60.0 °F /  15.6 °C 48.2 °F /  9 °C 30.09in /  1018.8hPa ESE 3.0mph /  4.8km/h 7.0mph /  11.3km/h 65% 0.00in /  0mm
02:27 60.1 °F /  15.6 °C 48.3 °F /  9.1 °C 30.09in /  1018.8hPa SE 4.0mph /  6.4km/h 7.0mph /  11.3km/h 65% 0.00in /  0mm
02:32 60.3 °F /  15.7 °C 48.1 °F /  8.9 °C 30.09in /  1018.8hPa South 2.0mph /  3.2km/h 6.0mph /  9.7km/h 64% 0.00in /  0mm
02:37 60.2 °F /  15.7 °C 48.4 °F /  9.1 °C 30.09in /  1018.8hPa SSE 4.0mph /  6.4km/h 5.0mph /  8km/h 65% 0.00in /  0mm
02:42 59.9 °F /  15.5 °C 48.1 °F /  8.9 °C 30.09in /  1018.8hPa SSE 4.0mph /  6.4km/h 5.0mph /  8km/h 65% 0.00in /  0mm
02:47 59.8 °F /  15.4 °C 48.4 °F /  9.1 °C 30.09in /  1018.8hPa SE 3.0mph /  4.8km/h 5.0mph /  8km/h 66% 0.00in /  0mm
02:52 59.9 °F /  15.5 °C 48.5 °F /  9.2 °C 30.09in /  1018.8hPa SE 4.0mph /  6.4km/h 6.0mph /  9.7km/h 66% 0.00in /  0mm
02:57 59.8 °F /  15.4 °C 48.4 °F /  9.1 °C 30.09in /  1018.8hPa SE 2.0mph /  3.2km/h 3.0mph /  4.8km/h 66% 0.00in /  0mm
03:03 59.6 °F /  15.3 °C 48.6 °F /  9.2 °C 30.09in /  1018.8hPa SE 2.0mph /  3.2km/h 4.0mph /  6.4km/h 67% 0.00in /  0mm
03:08 59.4 °F /  15.2 °C 48.5 °F /  9.2 °C 30.09in /  1018.8hPa ESE 2.0mph /  3.2km/h 3.0mph /  4.8km/h 67% 0.00in /  0mm
03:13 59.4 °F /  15.2 °C 48.5 °F /  9.2 °C 30.09in /  1018.8hPa ESE 2.0mph /  3.2km/h 4.0mph /  6.4km/h 67% 0.00in /  0mm
03:18 59.1 °F /  15.1 °C 48.6 °F /  9.2 °C 30.10in /  1019.2hPa Calm     68% 0.00in /  0mm
03:23 58.7 °F /  14.8 °C 48.2 °F /  9 °C 30.10in /  1019.2hPa ESE 1.0mph /  1.6km/h 2.0mph /  3.2km/h 68% 0.00in /  0mm
03:28 58.6 °F /  14.8 °C 48.5 °F /  9.2 °C 30.09in /  1018.8hPa ESE 2.0mph /  3.2km/h 2.0mph /  3.2km/h 69% 0.00in /  0mm
03:33 58.4 °F /  14.7 °C 48.3 °F /  9.1 °C 30.09in /  1018.8hPa East 2.0mph /  3.2km/h 3.0mph /  4.8km/h 69% 0.00in /  0mm
03:38 58.3 °F /  14.6 °C 48.6 °F /  9.2 °C 30.09in /  1018.8hPa East 2.0mph /  3.2km/h 3.0mph /  4.8km/h 70% 0.00in /  0mm
03:43 58.2 °F /  14.6 °C 48.5 °F /  9.2 °C 30.09in /  1018.8hPa ESE 2.0mph /  3.2km/h 3.0mph /  4.8km/h 70% 0.00in /  0mm
03:48 57.9 °F /  14.4 °C 48.6 °F /  9.2 °C 30.09in /  1018.8hPa ESE 3.0mph /  4.8km/h 3.0mph /  4.8km/h 71% 0.00in /  0mm
03:53 57.7 °F /  14.3 °C 48.4 °F /  9.1 °C 30.09in /  1018.8hPa East 2.0mph /  3.2km/h 3.0mph /  4.8km/h 71% 0.00in /  0mm
03:58 57.5 °F /  14.2 °C 48.6 °F /  9.2 °C 30.09in /  1018.8hPa ESE 2.0mph /  3.2km/h 3.0mph /  4.8km/h 72% 0.00in /  0mm
04:03 57.3 °F /  14.1 °C 48.4 °F /  9.1 °C 30.09in /  1018.8hPa East 4.0mph /  6.4km/h 4.0mph /  6.4km/h 72% 0.00in /  0mm
04:08 57.1 °F /  13.9 °C 48.2 °F /  9 °C 30.10in /  1019.2hPa ESE 2.0mph /  3.2km/h 3.0mph /  4.8km/h 72% 0.00in /  0mm
04:13 56.6 °F /  13.7 °C 48.1 °F /  8.9 °C 30.10in /  1019.2hPa ESE 2.0mph /  3.2km/h 3.0mph /  4.8km/h 73% 0.00in /  0mm
04:18 56.4 °F /  13.6 °C 48.2 °F /  9 °C 30.10in /  1019.2hPa ESE 3.0mph /  4.8km/h 4.0mph /  6.4km/h 74% 0.00in /  0mm
04:23 56.1 °F /  13.4 °C 47.9 °F /  8.8 °C 30.10in /  1019.2hPa ESE 3.0mph /  4.8km/h 4.0mph /  6.4km/h 74% 0.00in /  0mm
04:28 55.7 °F /  13.2 °C 47.9 °F /  8.8 °C 30.10in /  1019.2hPa ESE 2.0mph /  3.2km/h 4.0mph /  6.4km/h 75% 0.00in /  0mm
04:33 55.5 °F /  13.1 °C 48.1 °F /  8.9 °C 30.10in /  1019.2hPa SE 3.0mph /  4.8km/h 4.0mph /  6.4km/h 76% 0.00in /  0mm
04:38 55.6 °F /  13.1 °C 48.2 °F /  9 °C 30.10in /  1019.2hPa ESE 3.0mph /  4.8km/h 4.0mph /  6.4km/h 76% 0.00in /  0mm
04:43 55.7 °F /  13.2 °C 47.9 °F /  8.8 °C 30.09in /  1018.8hPa ESE 2.0mph /  3.2km/h 4.0mph /  6.4km/h 75% 0.00in /  0mm
04:48 55.4 °F /  13 °C 48.0 °F /  8.9 °C 30.10in /  1019.2hPa East 2.0mph /  3.2km/h 4.0mph /  6.4km/h 76% 0.00in /  0mm
04:53 55.5 °F /  13.1 °C 48.1 °F /  8.9 °C 30.09in /  1018.8hPa ESE 3.0mph /  4.8km/h 4.0mph /  6.4km/h 76% 0.00in /  0mm
04:58 55.5 °F /  13.1 °C 48.1 °F /  8.9 °C 30.10in /  1019.2hPa ESE 3.0mph /  4.8km/h 4.0mph /  6.4km/h 76% 0.00in /  0mm
05:03 55.5 °F /  13.1 °C 48.1 °F /  8.9 °C 30.10in /  1019.2hPa ESE 1.0mph /  1.6km/h 4.0mph /  6.4km/h 76% 0.00in /  0mm
05:08 55.3 °F /  12.9 °C 47.9 °F /  8.8 °C 30.10in /  1019.2hPa ESE 1.0mph /  1.6km/h 2.0mph /  3.2km/h 76% 0.00in /  0mm
05:13 55.3 °F /  12.9 °C 47.9 °F /  8.8 °C 30.10in /  1019.2hPa ESE 3.0mph /  4.8km/h 3.0mph /  4.8km/h 76% 0.00in /  0mm
05:18 55.5 °F /  13.1 °C 48.1 °F /  8.9 °C 30.10in /  1019.2hPa East 4.0mph /  6.4km/h 5.0mph /  8km/h 76% 0.00in /  0mm
05:23 55.3 °F /  12.9 °C 47.9 °F /  8.8 °C 30.10in /  1019.2hPa ESE 2.0mph /  3.2km/h 4.0mph /  6.4km/h 76% 0.00in /  0mm
05:28 55.1 °F /  12.8 °C 47.7 °F /  8.7 °C 30.10in /  1019.2hPa ESE 2.0mph /  3.2km/h 3.0mph /  4.8km/h 76% 0.00in /  0mm
05:33 55.1 °F /  12.8 °C 47.7 °F /  8.7 °C 30.10in /  1019.2hPa ESE 2.0mph /  3.2km/h 3.0mph /  4.8km/h 76% 0.00in /  0mm
05:39 54.9 °F /  12.7 °C 47.8 °F /  8.8 °C 30.09in /  1018.8hPa ESE 4.0mph /  6.4km/h 4.0mph /  6.4km/h 77% 0.00in /  0mm
05:44 54.7 °F /  12.6 °C 47.6 °F /  8.7 °C 30.09in /  1018.8hPa ESE 4.0mph /  6.4km/h 5.0mph /  8km/h 77% 0.00in /  0mm
05:49 54.6 °F /  12.6 °C 47.5 °F /  8.6 °C 30.09in /  1018.8hPa ESE 4.0mph /  6.4km/h 5.0mph /  8km/h 77% 0.00in /  0mm
05:54 54.6 °F /  12.6 °C 47.5 °F /  8.6 °C 30.09in /  1018.8hPa ESE 3.0mph /  4.8km/h 5.0mph /  8km/h 77% 0.00in /  0mm
05:59 54.5 °F /  12.5 °C 47.5 °F /  8.6 °C 30.09in /  1018.8hPa ESE 4.0mph /  6.4km/h 5.0mph /  8km/h 77% 0.00in /  0mm
06:04 54.6 °F /  12.6 °C 47.2 °F /  8.4 °C 30.10in /  1019.2hPa East 3.0mph /  4.8km/h 5.0mph /  8km/h 76% 0.00in /  0mm
06:09 54.6 °F /  12.6 °C 47.2 °F /  8.4 °C 30.10in /  1019.2hPa ESE 3.0mph /  4.8km/h 4.0mph /  6.4km/h 76% 0.00in /  0mm
06:14 54.6 °F /  12.6 °C 47.2 °F /  8.4 °C 30.10in /  1019.2hPa ESE 3.0mph /  4.8km/h 4.0mph /  6.4km/h 76% 0.00in /  0mm
06:19 54.4 °F /  12.4 °C 47.0 °F /  8.3 °C 30.10in /  1019.2hPa ESE 2.0mph /  3.2km/h 3.0mph /  4.8km/h 76% 0.00in /  0mm
06:24 54.3 °F /  12.4 °C 46.9 °F /  8.3 °C 30.10in /  1019.2hPa ESE 4.0mph /  6.4km/h 4.0mph /  6.4km/h 76% 0.00in /  0mm
06:29 54.2 °F /  12.3 °C 46.8 °F /  8.2 °C 30.10in /  1019.2hPa ESE 4.0mph /  6.4km/h 4.0mph /  6.4km/h 76% 0.00in /  0mm
06:34 54.2 °F /  12.3 °C 46.8 °F /  8.2 °C 30.10in /  1019.2hPa SE 4.0mph /  6.4km/h 4.0mph /  6.4km/h 76% 0.00in /  0mm
06:39 54.1 °F /  12.3 °C 46.7 °F /  8.2 °C 30.10in /  1019.2hPa ESE 4.0mph /  6.4km/h 4.0mph /  6.4km/h 76% 0.00in /  0mm
06:44 54.1 °F /  12.3 °C 46.7 °F /  8.2 °C 30.10in /  1019.2hPa SE 3.0mph /  4.8km/h 5.0mph /  8km/h 76% 0.00in /  0mm
06:49 54.1 °F /  12.3 °C 46.7 °F /  8.2 °C 30.11in /  1019.5hPa ESE 2.0mph /  3.2km/h 3.0mph /  4.8km/h 76% 0.00in /  0mm
06:54 54.1 °F /  12.3 °C 46.7 °F /  8.2 °C 30.11in /  1019.5hPa SE 2.0mph /  3.2km/h 4.0mph /  6.4km/h 76% 0.00in /  0mm
06:59 54.1 °F /  12.3 °C 46.7 °F /  8.2 °C 30.11in /  1019.5hPa SE 2.0mph /  3.2km/h 3.0mph /  4.8km/h 76% 0.00in /  0mm
07:04 54.1 °F /  12.3 °C 46.4 °F /  8 °C 30.11in /  1019.5hPa ESE 2.0mph /  3.2km/h 3.0mph /  4.8km/h 75% 0.00in /  0mm
07:10 54.1 °F /  12.3 °C 46.4 °F /  8 °C 30.11in /  1019.5hPa ESE 2.0mph /  3.2km/h 3.0mph /  4.8km/h 75% 0.00in /  0mm
07:15 54.0 °F /  12.2 °C 46.3 °F /  7.9 °C 30.12in /  1019.9hPa ESE 3.0mph /  4.8km/h 3.0mph /  4.8km/h 75% 0.00in /  0mm
07:20 53.9 °F /  12.2 °C 46.2 °F /  7.9 °C 30.12in /  1019.9hPa ESE 2.0mph /  3.2km/h 3.0mph /  4.8km/h 75% 0.00in /  0mm
07:25 53.8 °F /  12.1 °C 46.4 °F /  8 °C 30.12in /  1019.9hPa ESE 3.0mph /  4.8km/h 3.0mph /  4.8km/h 76% 0.00in /  0mm
07:30 53.9 °F /  12.2 °C 46.2 °F /  7.9 °C 30.13in /  1020.2hPa SE 3.0mph /  4.8km/h 4.0mph /  6.4km/h 75% 0.00in /  0mm
07:35 54.0 °F /  12.2 °C 46.3 °F /  7.9 °C 30.13in /  1020.2hPa ESE 3.0mph /  4.8km/h 4.0mph /  6.4km/h 75% 0.00in /  0mm
07:40 54.0 °F /  12.2 °C 46.3 °F /  7.9 °C 30.13in /  1020.2hPa ESE 4.0mph /  6.4km/h 4.0mph /  6.4km/h 75% 0.00in /  0mm
07:45 54.1 °F /  12.3 °C 46.4 °F /  8 °C 30.13in /  1020.2hPa SE 2.0mph /  3.2km/h 4.0mph /  6.4km/h 75% 0.00in /  0mm
07:50 54.3 °F /  12.4 °C 46.6 °F /  8.1 °C 30.13in /  1020.2hPa SE 3.0mph /  4.8km/h 4.0mph /  6.4km/h 75% 0.00in /  0mm
07:55 54.6 °F /  12.6 °C 46.8 °F /  8.2 °C 30.14in /  1020.5hPa ESE 3.0mph /  4.8km/h 4.0mph /  6.4km/h 75% 0.00in /  0mm
08:00 55.1 °F /  12.8 °C 47.0 °F /  8.3 °C 30.14in /  1020.5hPa ESE 2.0mph /  3.2km/h 4.0mph /  6.4km/h 74% 0.00in /  0mm
08:05 55.5 °F /  13.1 °C 47.0 °F /  8.3 °C 30.15in /  1020.9hPa ESE 2.0mph /  3.2km/h 4.0mph /  6.4km/h 73% 0.00in /  0mm
08:10 55.8 °F /  13.2 °C 47.3 °F /  8.5 °C 30.15in /  1020.9hPa SE 2.0mph /  3.2km/h 3.0mph /  4.8km/h 73% 0.00in /  0mm
08:15 56.3 °F /  13.5 °C 47.8 °F /  8.8 °C 30.15in /  1020.9hPa SE 1.0mph /  1.6km/h 3.0mph /  4.8km/h 73% 0.00in /  0mm
08:20 56.9 °F /  13.8 °C 47.6 °F /  8.7 °C 30.15in /  1020.9hPa ESE 3.0mph /  4.8km/h 3.0mph /  4.8km/h 71% 0.00in /  0mm
08:25 57.5 °F /  14.2 °C 48.2 °F /  9 °C 30.15in /  1020.9hPa SE 3.0mph /  4.8km/h 4.0mph /  6.4km/h 71% 0.00in /  0mm
08:30 58.0 °F /  14.4 °C 47.9 °F /  8.8 °C 30.16in /  1021.2hPa East 5.0mph /  8km/h 6.0mph /  9.7km/h 69% 0.00in /  0mm
08:35 58.5 °F /  14.7 °C 48.4 °F /  9.1 °C 30.16in /  1021.2hPa SSE 2.0mph /  3.2km/h 5.0mph /  8km/h 69% 0.00in /  0mm
08:40 59.1 °F /  15.1 °C 48.6 °F /  9.2 °C 30.16in /  1021.2hPa SE 3.0mph /  4.8km/h 4.0mph /  6.4km/h 68% 0.00in /  0mm
08:41 59.2 °F /  15.1 °C 48.7 °F /  9.3 °C 30.16in /  1021.2hPa SE 3.0mph /  4.8km/h 6.0mph /  9.7km/h 68% 0.00in /  0mm
08:47 59.6 °F /  15.3 °C 48.6 °F /  9.2 °C 30.16in /  1021.2hPa SSE 5.0mph /  8km/h 5.0mph /  8km/h 67% 0.00in /  0mm
08:52 60.0 °F /  15.6 °C 49.0 °F /  9.4 °C 30.16in /  1021.2hPa SE 3.0mph /  4.8km/h 6.0mph /  9.7km/h 67% 0.00in /  0mm
08:57 60.5 °F /  15.8 °C 49.1 °F /  9.5 °C 30.16in /  1021.2hPa SE 2.0mph /  3.2km/h 6.0mph /  9.7km/h 66% 0.00in /  0mm
09:02 60.8 °F /  16 °C 49.4 °F /  9.7 °C 30.16in /  1021.2hPa SSE 4.0mph /  6.4km/h 6.0mph /  9.7km/h 66% 0.00in /  0mm
09:08 61.2 °F /  16.2 °C 48.9 °F /  9.4 °C 30.16in /  1021.2hPa ESE 4.0mph /  6.4km/h 8.0mph /  12.9km/h 64% 0.00in /  0mm
09:13 61.5 °F /  16.4 °C 49.6 °F /  9.8 °C 30.16in /  1021.2hPa SSE 5.0mph /  8km/h 7.0mph /  11.3km/h 65% 0.00in /  0mm
09:19 62.0 °F /  16.7 °C 49.3 °F /  9.6 °C 30.16in /  1021.2hPa ESE 7.0mph /  11.3km/h 8.0mph /  12.9km/h 63% 0.00in /  0mm
09:24 62.4 °F /  16.9 °C 49.7 °F /  9.8 °C 30.16in /  1021.2hPa ESE 8.0mph /  12.9km/h 10.0mph /  16.1km/h 63% 0.00in /  0mm
09:29 62.6 °F /  17 °C 49.0 °F /  9.4 °C 30.16in /  1021.2hPa SE 6.0mph /  9.7km/h 11.0mph /  17.7km/h 61% 0.00in /  0mm
09:34 63.0 °F /  17.2 °C 48.9 °F /  9.4 °C 30.16in /  1021.2hPa ESE 8.0mph /  12.9km/h 10.0mph /  16.1km/h 60% 0.00in /  0mm
09:39 63.7 °F /  17.6 °C 50.5 °F /  10.3 °C 30.16in /  1021.2hPa SE 10.0mph /  16.1km/h 13.0mph /  20.9km/h 62% 0.00in /  0mm
09:45 63.8 °F /  17.7 °C 49.7 °F /  9.8 °C 30.16in /  1021.2hPa SE 7.0mph /  11.3km/h 10.0mph /  16.1km/h 60% 0.00in /  0mm
09:50 63.7 °F /  17.6 °C 50.0 °F /  10 °C 30.16in /  1021.2hPa SSE 7.0mph /  11.3km/h 10.0mph /  16.1km/h 61% 0.00in /  0mm
09:55 63.9 °F /  17.7 °C 49.8 °F /  9.9 °C 30.16in /  1021.2hPa South 3.0mph /  4.8km/h 11.0mph /  17.7km/h 60% 0.00in /  0mm
10:00 64.3 °F /  17.9 °C 50.6 °F /  10.3 °C 30.16in /  1021.2hPa SE 5.0mph /  8km/h 11.0mph /  17.7km/h 61% 0.00in /  0mm
10:05 64.7 °F /  18.2 °C 50.1 °F /  10.1 °C 30.16in /  1021.2hPa SE 12.0mph /  19.3km/h 13.0mph /  20.9km/h 59% 0.00in /  0mm
10:11 64.7 °F /  18.2 °C 49.6 °F /  9.8 °C 30.16in /  1021.2hPa SSE 7.0mph /  11.3km/h 10.0mph /  16.1km/h 58% 0.00in /  0mm
10:16 64.8 °F /  18.2 °C 49.7 °F /  9.8 °C 30.16in /  1021.2hPa SSE 14.0mph /  22.5km/h 14.0mph /  22.5km/h 58% 0.00in /  0mm
10:21 64.9 °F /  18.3 °C 49.8 °F /  9.9 °C 30.16in /  1021.2hPa South 6.0mph /  9.7km/h 12.0mph /  19.3km/h 58% 0.00in /  0mm
10:26 65.0 °F /  18.3 °C 48.5 °F /  9.2 °C 30.16in /  1021.2hPa SSE 9.0mph /  14.5km/h 12.0mph /  19.3km/h 55% 0.00in /  0mm
10:31 65.1 °F /  18.4 °C 49.5 °F /  9.7 °C 30.16in /  1021.2hPa SE 8.0mph /  12.9km/h 13.0mph /  20.9km/h 57% 0.00in /  0mm
10:36 65.5 °F /  18.6 °C 49.4 °F /  9.7 °C 30.16in /  1021.2hPa SSE 9.0mph /  14.5km/h 10.0mph /  16.1km/h 56% 0.00in /  0mm
10:41 65.8 °F /  18.8 °C 49.7 °F /  9.8 °C 30.16in /  1021.2hPa SSE 13.0mph /  20.9km/h 14.0mph /  22.5km/h 56% 0.00in /  0mm
10:46 66.0 °F /  18.9 °C 49.4 °F /  9.7 °C 30.16in /  1021.2hPa ESE 14.0mph /  22.5km/h 15.0mph /  24.1km/h 55% 0.00in /  0mm
10:51 66.4 °F /  19.1 °C 49.8 °F /  9.9 °C 30.16in /  1021.2hPa SSE 9.0mph /  14.5km/h 10.0mph /  16.1km/h 55% 0.00in /  0mm
10:56 66.9 °F /  19.4 °C 49.7 °F /  9.8 °C 30.16in /  1021.2hPa ESE 7.0mph /  11.3km/h 11.0mph /  17.7km/h 54% 0.00in /  0mm
11:01 67.5 °F /  19.7 °C 50.8 °F /  10.4 °C 30.16in /  1021.2hPa SSE 10.0mph /  16.1km/h 12.0mph /  19.3km/h 55% 0.00in /  0mm
11:06 67.6 °F /  19.8 °C 50.4 °F /  10.2 °C 30.16in /  1021.2hPa South 7.0mph /  11.3km/h 10.0mph /  16.1km/h 54% 0.00in /  0mm
11:11 67.7 °F /  19.8 °C 50.5 °F /  10.3 °C 30.16in /  1021.2hPa SE 12.0mph /  19.3km/h 13.0mph /  20.9km/h 54% 0.00in /  0mm
11:16 68.0 °F /  20 °C 50.2 °F /  10.1 °C 30.16in /  1021.2hPa SSE 10.0mph /  16.1km/h 15.0mph /  24.1km/h 53% 0.00in /  0mm
11:21 67.9 °F /  19.9 °C 50.2 °F /  10.1 °C 30.16in /  1021.2hPa SE 9.0mph /  14.5km/h 17.0mph /  27.4km/h 53% 0.00in /  0mm
11:26 68.0 °F /  20 °C 51.2 °F /  10.7 °C 30.16in /  1021.2hPa SSW 4.0mph /  6.4km/h 13.0mph /  20.9km/h 55% 0.00in /  0mm
11:31 68.7 °F /  20.4 °C 50.4 °F /  10.2 °C 30.16in /  1021.2hPa SE 5.0mph /  8km/h 14.0mph /  22.5km/h 52% 0.00in /  0mm
11:36 68.8 °F /  20.4 °C 50.0 °F /  10 °C 30.17in /  1021.6hPa SSE 9.0mph /  14.5km/h 15.0mph /  24.1km/h 51% 0.00in /  0mm
11:41 68.8 °F /  20.4 °C 50.5 °F /  10.3 °C 30.17in /  1021.6hPa SSE 8.0mph /  12.9km/h 14.0mph /  22.5km/h 52% 0.00in /  0mm
11:47 69.2 °F /  20.7 °C 49.8 °F /  9.9 °C 30.17in /  1021.6hPa SSE 10.0mph /  16.1km/h 14.0mph /  22.5km/h 50% 0.00in /  0mm
11:52 69.7 °F /  20.9 °C 50.2 °F /  10.1 °C 30.17in /  1021.6hPa SSW 9.0mph /  14.5km/h 12.0mph /  19.3km/h 50% 0.00in /  0mm
11:57 70.3 °F /  21.3 °C 49.7 °F /  9.8 °C 30.17in /  1021.6hPa SSW 9.0mph /  14.5km/h 13.0mph /  20.9km/h 48% 0.00in /  0mm
12:02 70.0 °F /  21.1 °C 49.4 °F /  9.7 °C 30.17in /  1021.6hPa SE 7.0mph /  11.3km/h 18.0mph /  29km/h 48% 0.00in /  0mm
12:07 69.7 °F /  20.9 °C 50.2 °F /  10.1 °C 30.16in /  1021.2hPa SSE 12.0mph /  19.3km/h 18.0mph /  29km/h 50% 0.00in /  0mm
12:12 69.5 °F /  20.8 °C 49.5 °F /  9.7 °C 30.17in /  1021.6hPa SSE 12.0mph /  19.3km/h 15.0mph /  24.1km/h 49% 0.00in /  0mm
12:17 69.4 °F /  20.8 °C 50.0 °F /  10 °C 30.16in /  1021.2hPa South 9.0mph /  14.5km/h 14.0mph /  22.5km/h 50% 0.00in /  0mm
12:22 69.5 °F /  20.8 °C 51.1 °F /  10.6 °C 30.16in /  1021.2hPa SE 14.0mph /  22.5km/h 14.0mph /  22.5km/h 52% 0.00in /  0mm
12:27 69.7 °F /  20.9 °C 50.2 °F /  10.1 °C 30.16in /  1021.2hPa SSE 8.0mph /  12.9km/h 18.0mph /  29km/h 50% 0.00in /  0mm
12:32 70.1 °F /  21.2 °C 52.7 °F /  11.5 °C 30.16in /  1021.2hPa South 6.0mph /  9.7km/h 14.0mph /  22.5km/h 54% 0.00in /  0mm
12:37 71.1 °F /  21.7 °C 52.6 °F /  11.4 °C 30.16in /  1021.2hPa SSE 14.0mph /  22.5km/h 14.0mph /  22.5km/h 52% 0.00in /  0mm
12:42 70.8 °F /  21.6 °C 51.3 °F /  10.7 °C 30.16in /  1021.2hPa SE 9.0mph /  14.5km/h 19.0mph /  30.6km/h 50% 0.00in /  0mm
12:47 71.3 °F /  21.8 °C 51.2 °F /  10.7 °C 30.16in /  1021.2hPa SE 11.0mph /  17.7km/h 18.0mph /  29km/h 49% 0.00in /  0mm
12:52 71.8 °F /  22.1 °C 50.5 °F /  10.3 °C 30.15in /  1020.9hPa SSW 6.0mph /  9.7km/h 14.0mph /  22.5km/h 47% 0.00in /  0mm
12:58 72.1 °F /  22.3 °C 50.2 °F /  10.1 °C 30.15in /  1020.9hPa SSW 13.0mph /  20.9km/h 16.0mph /  25.7km/h 46% 0.00in /  0mm
13:03 72.2 °F /  22.3 °C 51.4 °F /  10.8 °C 30.15in /  1020.9hPa SSE 12.0mph /  19.3km/h 13.0mph /  20.9km/h 48% 0.00in /  0mm
13:08 72.6 °F /  22.6 °C 51.8 °F /  11 °C 30.15in /  1020.9hPa SSW 11.0mph /  17.7km/h 15.0mph /  24.1km/h 48% 0.00in /  0mm
13:13 72.6 °F /  22.6 °C 51.8 °F /  11 °C 30.15in /  1020.9hPa SE 12.0mph /  19.3km/h 19.0mph /  30.6km/h 48% 0.00in /  0mm
13:18 72.6 °F /  22.6 °C 51.8 °F /  11 °C 30.14in /  1020.5hPa SE 14.0mph /  22.5km/h 16.0mph /  25.7km/h 48% 0.00in /  0mm
13:23 72.6 °F /  22.6 °C 51.2 °F /  10.7 °C 30.14in /  1020.5hPa SE 10.0mph /  16.1km/h 19.0mph /  30.6km/h 47% 0.00in /  0mm
13:29 73.1 °F /  22.8 °C 52.3 °F /  11.3 °C 30.14in /  1020.5hPa SSW 9.0mph /  14.5km/h 12.0mph /  19.3km/h 48% 0.00in /  0mm
13:34 72.8 °F /  22.7 °C 52.0 °F /  11.1 °C 30.13in /  1020.2hPa SE 13.0mph /  20.9km/h 18.0mph /  29km/h 48% 0.00in /  0mm
13:39 73.0 °F /  22.8 °C 52.7 °F /  11.5 °C 30.13in /  1020.2hPa SSW 12.0mph /  19.3km/h 15.0mph /  24.1km/h 49% 0.00in /  0mm
13:44 73.1 °F /  22.8 °C 53.4 °F /  11.9 °C 30.13in /  1020.2hPa SE 9.0mph /  14.5km/h 16.0mph /  25.7km/h 50% 0.00in /  0mm
13:49 74.0 °F /  23.3 °C 55.3 °F /  12.9 °C 30.13in /  1020.2hPa SSW 7.0mph /  11.3km/h 11.0mph /  17.7km/h 52% 0.00in /  0mm
13:54 74.6 °F /  23.7 °C 53.6 °F /  12 °C 30.12in /  1019.9hPa SE 11.0mph /  17.7km/h 12.0mph /  19.3km/h 48% 0.00in /  0mm
13:59 74.3 °F /  23.5 °C 53.9 °F /  12.2 °C 30.13in /  1020.2hPa South 15.0mph /  24.1km/h 17.0mph /  27.4km/h 49% 0.00in /  0mm
14:04 73.8 °F /  23.2 °C 52.9 °F /  11.6 °C 30.12in /  1019.9hPa South 8.0mph /  12.9km/h 17.0mph /  27.4km/h 48% 0.00in /  0mm
14:09 73.7 °F /  23.2 °C 53.9 °F /  12.2 °C 30.12in /  1019.9hPa SSE 8.0mph /  12.9km/h 10.0mph /  16.1km/h 50% 0.00in /  0mm
14:14 74.0 °F /  23.3 °C 54.2 °F /  12.3 °C 30.12in /  1019.9hPa ESE 13.0mph /  20.9km/h 14.0mph /  22.5km/h 50% 0.00in /  0mm
14:19 73.8 °F /  23.2 °C 53.5 °F /  11.9 °C 30.12in /  1019.9hPa SE 7.0mph /  11.3km/h 12.0mph /  19.3km/h 49% 0.00in /  0mm
14:24 73.8 °F /  23.2 °C 55.1 °F /  12.8 °C 30.11in /  1019.5hPa SSW 6.0mph /  9.7km/h 13.0mph /  20.9km/h 52% 0.00in /  0mm
14:29 73.7 °F /  23.2 °C 53.9 °F /  12.2 °C 30.11in /  1019.5hPa SSE 4.0mph /  6.4km/h 10.0mph /  16.1km/h 50% 0.00in /  0mm
14:34 73.3 °F /  22.9 °C 53.6 °F /  12 °C 30.11in /  1019.5hPa SSE 11.0mph /  17.7km/h 11.0mph /  17.7km/h 50% 0.00in /  0mm
14:40 73.7 °F /  23.2 °C 54.5 °F /  12.5 °C 30.11in /  1019.5hPa SE 7.0mph /  11.3km/h 10.0mph /  16.1km/h 51% 0.00in /  0mm
14:45 73.9 °F /  23.3 °C 54.7 °F /  12.6 °C 30.11in /  1019.5hPa SSW 7.0mph /  11.3km/h 13.0mph /  20.9km/h 51% 0.00in /  0mm
14:50 74.3 °F /  23.5 °C 55.0 °F /  12.8 °C 30.10in /  1019.2hPa SE 14.0mph /  22.5km/h 15.0mph /  24.1km/h 51% 0.00in /  0mm
14:56 74.4 °F /  23.6 °C 55.7 °F /  13.2 °C 30.10in /  1019.2hPa SE 6.0mph /  9.7km/h 13.0mph /  20.9km/h 52% 0.00in /  0mm
15:01 74.7 °F /  23.7 °C 55.9 °F /  13.3 °C 30.10in /  1019.2hPa South 7.0mph /  11.3km/h 13.0mph /  20.9km/h 52% 0.00in /  0mm
15:06 74.7 °F /  23.7 °C 55.9 °F /  13.3 °C 30.10in /  1019.2hPa SSW 8.0mph /  12.9km/h 11.0mph /  17.7km/h 52% 0.00in /  0mm
15:07 74.7 °F /  23.7 °C 55.9 °F /  13.3 °C 30.10in /  1019.2hPa SSE 10.0mph /  16.1km/h 11.0mph /  17.7km/h 52% 0.00in /  0mm
15:12 74.7 °F /  23.7 °C 56.5 °F /  13.6 °C 30.10in /  1019.2hPa SSE 11.0mph /  17.7km/h 15.0mph /  24.1km/h 53% 0.00in /  0mm
15:17 74.4 °F /  23.6 °C 56.7 °F /  13.7 °C 30.10in /  1019.2hPa SE 7.0mph /  11.3km/h 12.0mph /  19.3km/h 54% 0.00in /  0mm
15:22 74.3 °F /  23.5 °C 56.6 °F /  13.7 °C 30.09in /  1018.8hPa ESE 8.0mph /  12.9km/h 12.0mph /  19.3km/h 54% 0.00in /  0mm
15:27 74.7 °F /  23.7 °C 56.5 °F /  13.6 °C 30.09in /  1018.8hPa SSW 6.0mph /  9.7km/h 13.0mph /  20.9km/h 53% 0.00in /  0mm
15:32 75.5 °F /  24.2 °C 57.2 °F /  14 °C 30.09in /  1018.8hPa South 10.0mph /  16.1km/h 10.0mph /  16.1km/h 53% 0.00in /  0mm
15:37 76.1 °F /  24.5 °C 56.7 °F /  13.7 °C 30.09in /  1018.8hPa SSE 5.0mph /  8km/h 14.0mph /  22.5km/h 51% 0.00in /  0mm
15:42 76.5 °F /  24.7 °C 57.6 °F /  14.2 °C 30.08in /  1018.5hPa SE 7.0mph /  11.3km/h 10.0mph /  16.1km/h 52% 0.00in /  0mm
15:47 76.2 °F /  24.6 °C 57.3 °F /  14.1 °C 30.08in /  1018.5hPa ESE 10.0mph /  16.1km/h 13.0mph /  20.9km/h 52% 0.00in /  0mm
15:52 75.9 °F /  24.4 °C 57.0 °F /  13.9 °C 30.08in /  1018.5hPa SE 7.0mph /  11.3km/h 15.0mph /  24.1km/h 52% 0.00in /  0mm
15:57 76.4 °F /  24.7 °C 58.0 °F /  14.4 °C 30.07in /  1018.2hPa South 7.0mph /  11.3km/h 12.0mph /  19.3km/h 53% 0.00in /  0mm
16:02 76.9 °F /  24.9 °C 56.9 °F /  13.8 °C 30.08in /  1018.5hPa SSE 11.0mph /  17.7km/h 17.0mph /  27.4km/h 50% 0.00in /  0mm
16:07 77.0 °F /  25 °C 57.0 °F /  13.9 °C 30.07in /  1018.2hPa SSW 4.0mph /  6.4km/h 10.0mph /  16.1km/h 50% 0.00in /  0mm
16:12 77.1 °F /  25.1 °C 57.6 °F /  14.2 °C 30.07in /  1018.2hPa SE 12.0mph /  19.3km/h 15.0mph /  24.1km/h 51% 0.00in /  0mm
16:17 76.6 °F /  24.8 °C 56.6 °F /  13.7 °C 30.06in /  1017.8hPa SE 9.0mph /  14.5km/h 15.0mph /  24.1km/h 50% 0.00in /  0mm
16:22 76.1 °F /  24.5 °C 56.7 °F /  13.7 °C 30.06in /  1017.8hPa SE 8.0mph /  12.9km/h 15.0mph /  24.1km/h 51% 0.00in /  0mm
16:27 76.4 °F /  24.7 °C 57.5 °F /  14.2 °C 30.06in /  1017.8hPa South 11.0mph /  17.7km/h 12.0mph /  19.3km/h 52% 0.00in /  0mm
16:32 76.6 °F /  24.8 °C 57.1 °F /  13.9 °C 30.06in /  1017.8hPa SE 8.0mph /  12.9km/h 12.0mph /  19.3km/h 51% 0.00in /  0mm
16:37 76.6 °F /  24.8 °C 57.1 °F /  13.9 °C 30.05in /  1017.5hPa South 7.0mph /  11.3km/h 10.0mph /  16.1km/h 51% 0.00in /  0mm
16:42 76.7 °F /  24.8 °C 58.8 °F /  14.9 °C 30.05in /  1017.5hPa SE 5.0mph /  8km/h 13.0mph /  20.9km/h 54% 0.00in /  0mm
16:47 76.2 °F /  24.6 °C 56.8 °F /  13.8 °C 30.04in /  1017.2hPa SE 13.0mph /  20.9km/h 13.0mph /  20.9km/h 51% 0.00in /  0mm
16:52 76.0 °F /  24.4 °C 57.7 °F /  14.3 °C 30.04in /  1017.2hPa SSE 7.0mph /  11.3km/h 13.0mph /  20.9km/h 53% 0.00in /  0mm
16:57 76.6 °F /  24.8 °C 57.7 °F /  14.3 °C 30.04in /  1017.2hPa SE 6.0mph /  9.7km/h 11.0mph /  17.7km/h 52% 0.00in /  0mm
17:02 77.6 °F /  25.3 °C 59.1 °F /  15.1 °C 30.05in /  1017.5hPa SE 10.0mph /  16.1km/h 10.0mph /  16.1km/h 53% 0.00in /  0mm
17:07 78.0 °F /  25.6 °C 58.4 °F /  14.7 °C 30.05in /  1017.5hPa South 8.0mph /  12.9km/h 10.0mph /  16.1km/h 51% 0.00in /  0mm
17:12 77.9 °F /  25.5 °C 57.8 °F /  14.3 °C 30.04in /  1017.2hPa SE 14.0mph /  22.5km/h 14.0mph /  22.5km/h 50% 0.00in /  0mm
17:17 77.5 °F /  25.3 °C 58.0 °F /  14.4 °C 30.04in /  1017.2hPa SSE 6.0mph /  9.7km/h 14.0mph /  22.5km/h 51% 0.00in /  0mm
17:23 77.3 °F /  25.2 °C 58.3 °F /  14.6 °C 30.04in /  1017.2hPa SE 7.0mph /  11.3km/h 11.0mph /  17.7km/h 52% 0.00in /  0mm
17:28 77.1 °F /  25.1 °C 58.7 °F /  14.8 °C 30.04in /  1017.2hPa SE 14.0mph /  22.5km/h 14.0mph /  22.5km/h 53% 0.00in /  0mm
17:33 77.0 °F /  25 °C 58.6 °F /  14.8 °C 30.04in /  1017.2hPa South 6.0mph /  9.7km/h 12.0mph /  19.3km/h 53% 0.00in /  0mm
17:38 77.0 °F /  25 °C 58.6 °F /  14.8 °C 30.04in /  1017.2hPa SSE 7.0mph /  11.3km/h 10.0mph /  16.1km/h 53% 0.00in /  0mm
17:43 77.0 °F /  25 °C 59.1 °F /  15.1 °C 30.04in /  1017.2hPa SSE 6.0mph /  9.7km/h 10.0mph /  16.1km/h 54% 0.00in /  0mm
17:48 77.1 °F /  25.1 °C 58.7 °F /  14.8 °C 30.03in /  1016.8hPa SSE 4.0mph /  6.4km/h 16.0mph /  25.7km/h 53% 0.00in /  0mm
17:53 77.2 °F /  25.1 °C 58.8 °F /  14.9 °C 30.03in /  1016.8hPa SW 6.0mph /  9.7km/h 11.0mph /  17.7km/h 53% 0.00in /  0mm
17:59 77.5 °F /  25.3 °C 59.0 °F /  15 °C 30.03in /  1016.8hPa South 9.0mph /  14.5km/h 12.0mph /  19.3km/h 53% 0.00in /  0mm
18:04 77.6 °F /  25.3 °C 58.1 °F /  14.5 °C 30.03in /  1016.8hPa South 8.0mph /  12.9km/h 13.0mph /  20.9km/h 51% 0.00in /  0mm
18:09 77.6 °F /  25.3 °C 59.1 °F /  15.1 °C 30.02in /  1016.5hPa SSE 8.0mph /  12.9km/h 11.0mph /  17.7km/h 53% 0.00in /  0mm
18:14 77.6 °F /  25.3 °C 59.1 °F /  15.1 °C 30.02in /  1016.5hPa SE 11.0mph /  17.7km/h 11.0mph /  17.7km/h 53% 0.00in /  0mm
18:19 77.4 °F /  25.2 °C 58.4 °F /  14.7 °C 30.02in /  1016.5hPa SSE 9.0mph /  14.5km/h 13.0mph /  20.9km/h 52% 0.00in /  0mm
18:24 77.2 °F /  25.1 °C 59.3 °F /  15.2 °C 30.02in /  1016.5hPa SSE 8.0mph /  12.9km/h 12.0mph /  19.3km/h 54% 0.00in /  0mm
18:29 77.2 °F /  25.1 °C 59.3 °F /  15.2 °C 30.02in /  1016.5hPa SSE 7.0mph /  11.3km/h 12.0mph /  19.3km/h 54% 0.00in /  0mm
18:34 77.2 °F /  25.1 °C 58.8 °F /  14.9 °C 30.01in /  1016.1hPa SE 7.0mph /  11.3km/h 11.0mph /  17.7km/h 53% 0.00in /  0mm
18:39 77.3 °F /  25.2 °C 58.3 °F /  14.6 °C 30.01in /  1016.1hPa SSE 10.0mph /  16.1km/h 10.0mph /  16.1km/h 52% 0.00in /  0mm
18:44 77.0 °F /  25 °C 58.6 °F /  14.8 °C 30.01in /  1016.1hPa ESE 12.0mph /  19.3km/h 13.0mph /  20.9km/h 53% 0.00in /  0mm
18:49 76.8 °F /  24.9 °C 58.4 °F /  14.7 °C 30.01in /  1016.1hPa SE 5.0mph /  8km/h 12.0mph /  19.3km/h 53% 0.00in /  0mm
18:54 76.7 °F /  24.8 °C 58.3 °F /  14.6 °C 30.01in /  1016.1hPa SSE 9.0mph /  14.5km/h 12.0mph /  19.3km/h 53% 0.00in /  0mm
19:00 76.6 °F /  24.8 °C 58.2 °F /  14.6 °C 30.01in /  1016.1hPa South 8.0mph /  12.9km/h 14.0mph /  22.5km/h 53% 0.00in /  0mm
19:05 76.4 °F /  24.7 °C 58.5 °F /  14.7 °C 30.01in /  1016.1hPa SE 7.0mph /  11.3km/h 12.0mph /  19.3km/h 54% 0.00in /  0mm
19:10 76.3 °F /  24.6 °C 59.0 °F /  15 °C 30.01in /  1016.1hPa SSE 8.0mph /  12.9km/h 9.0mph /  14.5km/h 55% 0.00in /  0mm
19:15 76.2 °F /  24.6 °C 58.9 °F /  14.9 °C 30.01in /  1016.1hPa SE 12.0mph /  19.3km/h 12.0mph /  19.3km/h 55% 0.00in /  0mm
19:20 76.1 °F /  24.5 °C 58.8 °F /  14.9 °C 30.00in /  1015.8hPa SE 7.0mph /  11.3km/h 12.0mph /  19.3km/h 55% 0.00in /  0mm
19:25 75.9 °F /  24.4 °C 58.6 °F /  14.8 °C 30.00in /  1015.8hPa SE 8.0mph /  12.9km/h 10.0mph /  16.1km/h 55% 0.00in /  0mm
19:30 75.6 °F /  24.2 °C 58.8 °F /  14.9 °C 30.00in /  1015.8hPa SE 4.0mph /  6.4km/h 10.0mph /  16.1km/h 56% 0.00in /  0mm
19:35 75.4 °F /  24.1 °C 58.6 °F /  14.8 °C 30.00in /  1015.8hPa SE 6.0mph /  9.7km/h 10.0mph /  16.1km/h 56% 0.00in /  0mm
19:40 75.1 °F /  23.9 °C 58.3 °F /  14.6 °C 30.00in /  1015.8hPa SE 5.0mph /  8km/h 8.0mph /  12.9km/h 56% 0.00in /  0mm
19:41 75.1 °F /  23.9 °C 58.3 °F /  14.6 °C 30.00in /  1015.8hPa SE 5.0mph /  8km/h 8.0mph /  12.9km/h 56% 0.00in /  0mm
19:46 74.8 °F /  23.8 °C 58.1 °F /  14.5 °C 30.00in /  1015.8hPa SSE 6.0mph /  9.7km/h 9.0mph /  14.5km/h 56% 0.00in /  0mm
19:51 74.4 °F /  23.6 °C 58.2 °F /  14.6 °C 30.00in /  1015.8hPa SSE 8.0mph /  12.9km/h 9.0mph /  14.5km/h 57% 0.00in /  0mm
19:56 74.0 °F /  23.3 °C 57.8 °F /  14.3 °C 30.00in /  1015.8hPa SSE 6.0mph /  9.7km/h 11.0mph /  17.7km/h 57% 0.00in /  0mm
20:01 73.9 °F /  23.3 °C 58.2 °F /  14.6 °C 30.00in /  1015.8hPa SE 5.0mph /  8km/h 8.0mph /  12.9km/h 58% 0.00in /  0mm
20:06 73.5 °F /  23.1 °C 57.8 °F /  14.3 °C 30.00in /  1015.8hPa SSE 4.0mph /  6.4km/h 9.0mph /  14.5km/h 58% 0.00in /  0mm
20:11 73.1 °F /  22.8 °C 57.9 °F /  14.4 °C 30.00in /  1015.8hPa SSE 5.0mph /  8km/h 10.0mph /  16.1km/h 59% 0.00in /  0mm
20:16 72.7 °F /  22.6 °C 58.0 °F /  14.4 °C 30.00in /  1015.8hPa SE 5.0mph /  8km/h 8.0mph /  12.9km/h 60% 0.00in /  0mm
20:21 72.5 °F /  22.5 °C 57.8 °F /  14.3 °C 30.00in /  1015.8hPa SE 5.0mph /  8km/h 9.0mph /  14.5km/h 60% 0.00in /  0mm
20:26 72.1 °F /  22.3 °C 57.5 °F /  14.2 °C 30.00in /  1015.8hPa SE 6.0mph /  9.7km/h 7.0mph /  11.3km/h 60% 0.00in /  0mm
20:31 71.9 °F /  22.2 °C 57.7 °F /  14.3 °C 30.00in /  1015.8hPa SE 5.0mph /  8km/h 7.0mph /  11.3km/h 61% 0.00in /  0mm
20:37 71.6 °F /  22 °C 57.5 °F /  14.2 °C 30.01in /  1016.1hPa SE 4.0mph /  6.4km/h 6.0mph /  9.7km/h 61% 0.00in /  0mm
20:42 71.4 °F /  21.9 °C 57.7 °F /  14.3 °C 30.00in /  1015.8hPa SSE 4.0mph /  6.4km/h 9.0mph /  14.5km/h 62% 0.00in /  0mm
20:47 71.2 °F /  21.8 °C 57.5 °F /  14.2 °C 30.00in /  1015.8hPa SE 5.0mph /  8km/h 9.0mph /  14.5km/h 62% 0.00in /  0mm
20:52 70.9 °F /  21.6 °C 57.2 °F /  14 °C 30.01in /  1016.1hPa SSE 5.0mph /  8km/h 7.0mph /  11.3km/h 62% 0.00in /  0mm
20:57 70.7 °F /  21.5 °C 57.5 °F /  14.2 °C 30.00in /  1015.8hPa SE 5.0mph /  8km/h 9.0mph /  14.5km/h 63% 0.00in /  0mm
21:02 70.2 °F /  21.2 °C 57.5 °F /  14.2 °C 30.00in /  1015.8hPa SE 4.0mph /  6.4km/h 6.0mph /  9.7km/h 64% 0.00in /  0mm
21:07 70.2 °F /  21.2 °C 57.5 °F /  14.2 °C 30.01in /  1016.1hPa SSE 4.0mph /  6.4km/h 8.0mph /  12.9km/h 64% 0.00in /  0mm
21:12 70.0 °F /  21.1 °C 57.3 °F /  14.1 °C 30.01in /  1016.1hPa SSE 4.0mph /  6.4km/h 7.0mph /  11.3km/h 64% 0.00in /  0mm
21:17 70.0 °F /  21.1 °C 57.3 °F /  14.1 °C 30.01in /  1016.1hPa SSE 7.0mph /  11.3km/h 8.0mph /  12.9km/h 64% 0.00in /  0mm
21:22 69.8 °F /  21 °C 57.5 °F /  14.2 °C 30.01in /  1016.1hPa SSE 7.0mph /  11.3km/h 7.0mph /  11.3km/h 65% 0.00in /  0mm
21:27 69.6 °F /  20.9 °C 57.3 °F /  14.1 °C 30.01in /  1016.1hPa SE 4.0mph /  6.4km/h 8.0mph /  12.9km/h 65% 0.00in /  0mm
21:32 69.3 °F /  20.7 °C 57.5 °F /  14.2 °C 30.01in /  1016.1hPa SSE 3.0mph /  4.8km/h 6.0mph /  9.7km/h 66% 0.00in /  0mm
21:37 69.3 °F /  20.7 °C 57.5 °F /  14.2 °C 30.02in /  1016.5hPa SE 4.0mph /  6.4km/h 7.0mph /  11.3km/h 66% 0.00in /  0mm
21:42 69.2 °F /  20.7 °C 57.4 °F /  14.1 °C 30.01in /  1016.1hPa SSE 6.0mph /  9.7km/h 8.0mph /  12.9km/h 66% 0.00in /  0mm
21:47 69.3 °F /  20.7 °C 57.5 °F /  14.2 °C 30.01in /  1016.1hPa SE 6.0mph /  9.7km/h 8.0mph /  12.9km/h 66% 0.00in /  0mm
21:53 69.2 °F /  20.7 °C 57.4 °F /  14.1 °C 30.02in /  1016.5hPa SE 7.0mph /  11.3km/h 9.0mph /  14.5km/h 66% 0.00in /  0mm
21:58 69.1 °F /  20.6 °C 57.3 °F /  14.1 °C 30.02in /  1016.5hPa SE 4.0mph /  6.4km/h 7.0mph /  11.3km/h 66% 0.00in /  0mm
22:03 68.9 °F /  20.5 °C 57.1 °F /  13.9 °C 30.02in /  1016.5hPa SE 5.0mph /  8km/h 8.0mph /  12.9km/h 66% 0.00in /  0mm
22:08 68.7 °F /  20.4 °C 57.3 °F /  14.1 °C 30.02in /  1016.5hPa SE 5.0mph /  8km/h 7.0mph /  11.3km/h 67% 0.00in /  0mm
22:13 68.6 °F /  20.3 °C 57.2 °F /  14 °C 30.02in /  1016.5hPa SE 5.0mph /  8km/h 6.0mph /  9.7km/h 67% 0.00in /  0mm
22:18 68.5 °F /  20.3 °C 57.1 °F /  13.9 °C 30.02in /  1016.5hPa SSE 6.0mph /  9.7km/h 7.0mph /  11.3km/h 67% 0.00in /  0mm
22:23 68.3 °F /  20.2 °C 57.3 °F /  14.1 °C 30.02in /  1016.5hPa SE 6.0mph /  9.7km/h 8.0mph /  12.9km/h 68% 0.00in /  0mm
22:28 68.3 °F /  20.2 °C 57.3 °F /  14.1 °C 30.02in /  1016.5hPa SSE 4.0mph /  6.4km/h 7.0mph /  11.3km/h 68% 0.00in /  0mm
22:33 67.9 °F /  19.9 °C 57.0 °F /  13.9 °C 30.02in /  1016.5hPa SE 3.0mph /  4.8km/h 7.0mph /  11.3km/h 68% 0.00in /  0mm
22:38 67.8 °F /  19.9 °C 57.3 °F /  14.1 °C 30.02in /  1016.5hPa SE 6.0mph /  9.7km/h 10.0mph /  16.1km/h 69% 0.00in /  0mm
22:43 68.0 °F /  20 °C 57.1 °F /  13.9 °C 30.02in /  1016.5hPa SE 6.0mph /  9.7km/h 9.0mph /  14.5km/h 68% 0.00in /  0mm
22:48 67.9 °F /  19.9 °C 57.4 °F /  14.1 °C 30.02in /  1016.5hPa SE 4.0mph /  6.4km/h 8.0mph /  12.9km/h 69% 0.00in /  0mm
22:53 67.8 °F /  19.9 °C 57.3 °F /  14.1 °C 30.02in /  1016.5hPa SE 8.0mph /  12.9km/h 9.0mph /  14.5km/h 69% 0.00in /  0mm
22:58 67.8 °F /  19.9 °C 57.3 °F /  14.1 °C 30.02in /  1016.5hPa SSE 5.0mph /  8km/h 8.0mph /  12.9km/h 69% 0.00in /  0mm
23:03 67.7 °F /  19.8 °C 57.2 °F /  14 °C 30.02in /  1016.5hPa SSE 5.0mph /  8km/h 8.0mph /  12.9km/h 69% 0.00in /  0mm
23:08 67.5 °F /  19.7 °C 57.4 °F /  14.1 °C 30.02in /  1016.5hPa SE 5.0mph /  8km/h 8.0mph /  12.9km/h 70% 0.00in /  0mm
23:13 67.2 °F /  19.6 °C 57.5 °F /  14.2 °C 30.02in /  1016.5hPa SE 5.0mph /  8km/h 9.0mph /  14.5km/h 71% 0.00in /  0mm
23:18 67.3 °F /  19.6 °C 57.6 °F /  14.2 °C 30.02in /  1016.5hPa SE 6.0mph /  9.7km/h 8.0mph /  12.9km/h 71% 0.00in /  0mm
23:23 67.2 °F /  19.6 °C 57.5 °F /  14.2 °C 30.02in /  1016.5hPa SE 6.0mph /  9.7km/h 9.0mph /  14.5km/h 71% 0.00in /  0mm
23:28 67.1 °F /  19.5 °C 57.4 °F /  14.1 °C 30.02in /  1016.5hPa SE 6.0mph /  9.7km/h 9.0mph /  14.5km/h 71% 0.00in /  0mm
23:33 67.2 °F /  19.6 °C 57.5 °F /  14.2 °C 30.01in /  1016.1hPa SSE 6.0mph /  9.7km/h 11.0mph /  17.7km/h 71% 0.00in /  0mm
23:38 67.1 °F /  19.5 °C 57.4 °F /  14.1 °C 30.01in /  1016.1hPa SE 6.0mph /  9.7km/h 8.0mph /  12.9km/h 71% 0.00in /  0mm
23:43 67.1 °F /  19.5 °C 57.4 °F /  14.1 °C 30.02in /  1016.5hPa SSE 10.0mph /  16.1km/h 11.0mph /  17.7km/h 71% 0.00in /  0mm
23:48 67.1 °F /  19.5 °C 57.4 °F /  14.1 °C 30.01in /  1016.1hPa SE 8.0mph /  12.9km/h 10.0mph /  16.1km/h 71% 0.00in /  0mm
23:53 67.0 °F /  19.4 °C 57.3 °F /  14.1 °C 30.02in /  1016.5hPa SE 7.0mph /  11.3km/h 10.0mph /  16.1km/h 71% 0.00in /  0mm
23:58 66.9 °F /  19.4 °C 57.2 °F /  14 °C 30.02in /  1016.5hPa SSE 5.0mph /  8km/h 10.0mph /  16.1km/h 71% 0.00in /  0mm
Compliments of Weather Underground